createdAt,value
2022-07-25T00:01:40.800Z,12.45
2022-07-25T00:04:09.388Z,13.07
2022-07-25T00:06:39.404Z,10.05
2022-07-25T00:09:06.024Z,13.90
2022-07-25T00:11:32.557Z,17.08
2022-07-25T00:13:59.330Z,11.82
2022-07-25T00:16:25.862Z,12.65
2022-07-25T00:18:52.407Z,10.55
2022-07-25T00:21:18.784Z,11.32
2022-07-25T00:23:45.174Z,14.90
2022-07-25T00:26:11.602Z,11.02
2022-07-25T00:28:38.143Z,14.73
2022-07-25T00:31:04.817Z,12.38
2022-07-25T00:33:31.462Z,12.40
2022-07-25T00:35:58.182Z,13.15
2022-07-25T00:38:24.669Z,12.30
2022-07-25T00:40:54.459Z,9.88
2022-07-25T00:43:22.394Z,10.75
2022-07-25T00:45:48.804Z,14.43
2022-07-25T00:48:15.189Z,9.65
2022-07-25T00:50:41.921Z,12.77
2022-07-25T00:53:08.359Z,11.18
2022-07-25T00:55:35.095Z,14.80
2022-07-25T00:58:01.472Z,11.73
2022-07-25T01:00:28.051Z,12.95
2022-07-25T01:02:55.160Z,10.75
2022-07-25T01:05:21.635Z,12.82
2022-07-25T01:07:48.376Z,10.70
2022-07-25T01:10:14.917Z,14.73
2022-07-25T01:12:47.811Z,13.07
2022-07-25T01:15:15.618Z,14.40
2022-07-25T01:17:42.032Z,13.00
2022-07-25T01:20:14.801Z,12.20
2022-07-25T01:22:41.374Z,13.45
2022-07-25T01:25:08.200Z,10.90
2022-07-25T01:27:34.666Z,12.68
2022-07-25T01:30:01.172Z,10.63
2022-07-25T01:32:27.649Z,11.35
2022-07-25T01:34:54.058Z,12.52
2022-07-25T01:37:20.495Z,11.07
2022-07-25T01:39:46.929Z,13.27
2022-07-25T01:42:13.340Z,10.73
2022-07-25T01:44:39.729Z,12.90
2022-07-25T01:47:06.200Z,10.88
2022-07-25T01:49:33.075Z,14.48
2022-07-25T01:52:00.621Z,17.48
2022-07-25T01:54:27.094Z,16.08
2022-07-25T01:56:53.504Z,13.43
2022-07-25T01:59:19.939Z,12.38
2022-07-25T02:01:46.442Z,12.68
2022-07-25T02:04:13.031Z,12.02
2022-07-25T02:06:41.414Z,12.40
2022-07-25T02:09:08.698Z,11.48
2022-07-25T02:11:36.179Z,11.23
2022-07-25T02:14:03.117Z,13.20
2022-07-25T02:16:29.820Z,13.77
2022-07-25T02:18:56.615Z,12.95
2022-07-25T02:21:23.018Z,13.27
2022-07-25T02:23:49.542Z,15.10
2022-07-25T02:26:16.005Z,11.90
2022-07-25T02:28:42.539Z,13.35
2022-07-25T02:31:09.450Z,14.55
2022-07-25T02:33:36.518Z,14.30
2022-07-25T02:36:02.954Z,12.10
2022-07-25T02:38:29.388Z,11.98
2022-07-25T02:40:55.985Z,11.32
2022-07-25T02:43:22.572Z,15.60
2022-07-25T02:45:49.116Z,12.27
2022-07-25T02:48:15.566Z,11.85
2022-07-25T02:50:42.132Z,12.68
2022-07-25T02:53:08.561Z,11.73
2022-07-25T02:55:35.002Z,10.43
2022-07-25T02:58:01.451Z,13.68
2022-07-25T03:00:27.944Z,14.13
2022-07-25T03:02:54.461Z,11.90
2022-07-25T03:05:20.915Z,12.43
2022-07-25T03:07:47.311Z,10.95
2022-07-25T03:10:14.384Z,12.82
2022-07-25T03:12:42.126Z,14.57
2022-07-25T03:15:09.809Z,12.68
2022-07-25T03:17:36.410Z,12.63
2022-07-25T03:20:03.550Z,11.32
2022-07-25T03:22:29.968Z,12.18
2022-07-25T03:24:56.368Z,14.52
2022-07-25T03:27:22.777Z,12.98
2022-07-25T03:29:49.161Z,18.65
2022-07-25T03:32:15.898Z,10.93
2022-07-25T03:34:43.641Z,12.95
2022-07-25T03:37:10.037Z,11.07
2022-07-25T03:39:36.502Z,13.45
2022-07-25T03:42:03.199Z,15.93
2022-07-25T03:44:29.726Z,11.15
2022-07-25T03:46:56.153Z,11.43
2022-07-25T03:49:22.636Z,11.48
2022-07-25T03:51:49.035Z,16.80
2022-07-25T03:54:15.565Z,14.02
2022-07-25T03:56:46.994Z,11.88
2022-07-25T03:59:16.364Z,12.35
2022-07-25T04:01:44.585Z,11.75
2022-07-25T04:04:11.169Z,15.25
2022-07-25T04:06:38.838Z,14.85
2022-07-25T04:09:06.303Z,13.63
2022-07-25T04:11:32.958Z,11.63
2022-07-25T04:13:59.363Z,12.65
2022-07-25T04:16:25.872Z,16.42
2022-07-25T04:18:54.671Z,10.98
2022-07-25T04:21:22.809Z,13.68
2022-07-25T04:23:49.700Z,17.35
2022-07-25T04:26:16.535Z,15.35
2022-07-25T04:28:43.080Z,16.48
2022-07-25T04:31:09.592Z,12.13
2022-07-25T04:33:40.414Z,12.18
2022-07-25T04:36:07.456Z,13.57
2022-07-25T04:38:34.310Z,15.50
2022-07-25T04:41:00.804Z,15.68
2022-07-25T04:43:27.340Z,16.50
2022-07-25T04:45:53.943Z,13.90
2022-07-25T04:48:20.432Z,18.30
2022-07-25T04:50:46.859Z,16.20
2022-07-25T04:53:13.316Z,26.10
2022-07-25T04:55:40.698Z,29.73
2022-07-25T04:58:07.193Z,22.63
2022-07-25T05:00:33.784Z,28.20
2022-07-25T05:03:00.237Z,29.38
2022-07-25T05:05:26.880Z,30.90
2022-07-25T05:07:58.127Z,24.33
2022-07-25T05:10:26.484Z,28.05
2022-07-25T05:12:52.907Z,24.30
2022-07-25T05:15:19.532Z,23.42
2022-07-25T05:17:46.103Z,22.98
2022-07-25T05:20:14.012Z,26.63
2022-07-25T05:22:40.729Z,24.95
2022-07-25T05:25:08.648Z,22.50
2022-07-25T05:27:35.125Z,31.25
2022-07-25T05:30:01.533Z,33.92
2022-07-25T05:32:28.094Z,26.00
2022-07-25T05:34:54.510Z,28.08
2022-07-25T05:37:21.005Z,35.30
2022-07-25T05:39:47.602Z,31.08
2022-07-25T05:42:14.222Z,33.00
2022-07-25T05:44:40.645Z,32.90
2022-07-25T05:47:11.798Z,23.23
2022-07-25T05:49:39.131Z,17.38
2022-07-25T05:52:10.887Z,19.02
2022-07-25T05:54:39.520Z,22.63
2022-07-25T05:57:05.963Z,23.02
2022-07-25T05:59:32.451Z,18.20
2022-07-25T06:01:58.994Z,18.95
2022-07-25T06:04:27.220Z,18.17
2022-07-25T06:06:53.939Z,13.48
2022-07-25T06:09:21.834Z,14.93
2022-07-25T06:11:59.730Z,16.00
2022-07-25T06:14:28.520Z,12.10
2022-07-25T06:16:55.278Z,17.60
2022-07-25T06:19:21.911Z,19.17
2022-07-25T06:21:48.508Z,15.15
2022-07-25T06:24:15.111Z,13.57
2022-07-25T06:26:41.583Z,18.55
2022-07-25T06:29:08.066Z,19.77
2022-07-25T06:31:34.522Z,13.27
2022-07-25T06:34:00.958Z,13.05
2022-07-25T06:36:32.238Z,13.23
2022-07-25T06:38:59.823Z,11.05
2022-07-25T06:41:26.270Z,11.40
2022-07-25T06:43:52.724Z,17.75
2022-07-25T06:46:19.217Z,17.73
2022-07-25T06:48:45.795Z,14.02
2022-07-25T06:51:12.358Z,12.60
2022-07-25T06:53:38.767Z,10.10
2022-07-25T06:56:05.659Z,13.05
2022-07-25T06:58:32.063Z,15.38
2022-07-25T07:01:01.104Z,11.57
2022-07-25T07:03:28.137Z,16.30
2022-07-25T07:05:54.921Z,14.45
2022-07-25T07:08:21.501Z,12.35
2022-07-25T07:10:47.910Z,12.30
2022-07-25T07:13:23.871Z,12.07
2022-07-25T07:15:51.350Z,12.48
2022-07-25T07:18:18.975Z,11.07
2022-07-25T07:20:46.020Z,14.52
2022-07-25T07:23:16.690Z,15.13
2022-07-25T07:25:46.802Z,14.38
2022-07-25T07:28:13.310Z,16.27
2022-07-25T07:31:13.325Z,11.63
2022-07-25T07:33:26.315Z,11.80
2022-07-25T07:35:55.852Z,14.52
2022-07-25T07:38:23.978Z,13.13
2022-07-25T07:40:50.377Z,14.25
2022-07-25T07:43:16.824Z,13.60
2022-07-25T07:45:43.815Z,13.05
2022-07-25T07:48:10.670Z,11.32
2022-07-25T07:50:37.181Z,12.73
2022-07-25T07:53:04.245Z,11.18
2022-07-25T07:55:46.407Z,14.90
2022-07-25T07:58:15.696Z,11.63
2022-07-25T08:00:44.090Z,11.25
2022-07-25T08:03:10.915Z,10.45
2022-07-25T08:05:43.364Z,15.48
2022-07-25T08:08:12.518Z,12.38
2022-07-25T08:10:41.793Z,16.63
2022-07-25T08:13:20.606Z,13.52
2022-07-25T08:15:52.227Z,18.63
2022-07-25T08:18:19.076Z,12.23
2022-07-25T08:20:49.617Z,11.20
2022-07-25T08:23:16.709Z,10.68
2022-07-25T08:25:44.147Z,21.10
2022-07-25T08:28:11.144Z,12.27
2022-07-25T08:30:38.991Z,13.40
2022-07-25T08:33:09.672Z,17.70
2022-07-25T08:35:36.494Z,13.77
2022-07-25T08:38:04.673Z,12.63
2022-07-25T08:40:32.630Z,12.13
2022-07-25T08:42:59.634Z,11.90
2022-07-25T08:45:28.487Z,14.50
2022-07-25T08:47:55.563Z,13.60
2022-07-25T08:50:25.033Z,11.55
2022-07-25T08:53:04.623Z,12.43
2022-07-25T08:55:39.358Z,17.15
2022-07-25T08:58:05.797Z,12.18
2022-07-25T09:00:33.226Z,10.90
2022-07-25T09:03:02.009Z,13.00
2022-07-25T09:05:30.429Z,10.80
2022-07-25T09:08:06.045Z,15.25
2022-07-25T09:10:32.750Z,11.85
2022-07-25T09:13:01.912Z,13.38
2022-07-25T09:15:33.647Z,11.18
2022-07-25T09:18:05.942Z,11.00
2022-07-25T09:20:43.065Z,10.35
2022-07-25T09:23:15.621Z,10.40
2022-07-25T09:25:42.653Z,8.60
2022-07-25T09:28:14.694Z,8.13
2022-07-25T09:30:53.186Z,10.32
2022-07-25T09:33:19.695Z,9.88
2022-07-25T09:35:46.193Z,9.93
2022-07-25T09:38:14.975Z,8.73
2022-07-25T09:40:52.929Z,9.30
2022-07-25T09:43:19.408Z,10.07
2022-07-25T09:45:50.776Z,9.35
2022-07-25T09:48:19.558Z,8.75
2022-07-25T09:50:46.415Z,13.45
2022-07-25T09:53:13.067Z,9.50
2022-07-25T09:55:40.446Z,11.60
2022-07-25T09:58:06.905Z,8.48
2022-07-25T10:00:34.184Z,10.35
2022-07-25T10:03:12.118Z,9.68
2022-07-25T10:06:14.803Z,8.77
2022-07-25T10:08:41.835Z,9.75
2022-07-25T10:11:26.763Z,8.63
2022-07-25T10:13:54.586Z,10.63
2022-07-25T10:16:26.601Z,10.13
2022-07-25T10:18:55.858Z,10.35
2022-07-25T10:21:27.254Z,8.75
2022-07-25T10:24:13.251Z,8.30
2022-07-25T10:26:51.074Z,9.20
2022-07-25T10:29:17.600Z,9.23
2022-07-25T10:31:51.464Z,8.95
2022-07-25T10:34:30.205Z,10.65
2022-07-25T10:36:57.166Z,9.15
2022-07-25T10:39:23.971Z,9.63
2022-07-25T10:41:56.087Z,11.02
2022-07-25T10:44:22.792Z,12.18
2022-07-25T10:46:50.204Z,11.15
2022-07-25T10:49:32.156Z,13.30
2022-07-25T10:52:01.231Z,9.85
2022-07-25T10:54:33.678Z,10.50
2022-07-25T10:57:01.017Z,9.32
2022-07-25T10:59:38.788Z,9.07
2022-07-25T11:02:16.388Z,13.05
2022-07-25T11:04:57.879Z,8.43
2022-07-25T11:07:24.516Z,11.50
2022-07-25T11:10:02.151Z,7.95
2022-07-25T11:12:28.899Z,8.00
2022-07-25T11:15:04.293Z,7.97
2022-07-25T11:17:30.801Z,7.80
2022-07-25T11:20:01.277Z,8.95
2022-07-25T11:22:28.988Z,8.27
2022-07-25T11:24:57.141Z,8.43
2022-07-25T11:27:32.793Z,9.35
2022-07-25T11:30:08.732Z,8.85
2022-07-25T11:32:46.937Z,7.35
2022-07-25T11:35:14.728Z,8.10
2022-07-25T11:37:48.469Z,7.78
2022-07-25T11:40:18.806Z,7.38
2022-07-25T11:42:47.958Z,8.55
2022-07-25T11:45:18.594Z,8.20
2022-07-25T11:50:14.873Z,7.55
2022-07-25T11:52:43.261Z,7.53
2022-07-25T11:55:13.293Z,8.73
2022-07-25T11:57:45.732Z,7.38
2022-07-25T12:00:18.455Z,7.85
2022-07-25T12:02:45.694Z,7.97
2022-07-25T12:05:14.680Z,8.05
2022-07-25T12:07:44.789Z,8.10
2022-07-25T12:10:16.917Z,8.48
2022-07-25T12:12:50.836Z,8.18
2022-07-25T12:15:21.024Z,10.60
2022-07-25T12:17:48.878Z,8.60
2022-07-25T12:20:17.718Z,9.45
2022-07-25T12:22:44.821Z,7.90
2022-07-25T12:25:12.442Z,9.32
2022-07-25T12:27:39.619Z,8.48
2022-07-25T12:30:07.508Z,10.35
2022-07-25T12:32:34.682Z,7.70
2022-07-25T12:35:01.866Z,9.38
2022-07-25T12:37:28.620Z,7.28
2022-07-25T12:39:55.872Z,8.98
2022-07-25T12:42:22.922Z,7.57
2022-07-25T12:44:49.756Z,8.20
2022-07-25T12:47:16.353Z,8.73
2022-07-25T12:49:42.828Z,8.27
2022-07-25T12:52:09.780Z,8.00
2022-07-25T12:54:36.350Z,8.80
2022-07-25T12:57:02.897Z,10.20
2022-07-25T12:59:29.325Z,9.32
2022-07-25T13:01:56.249Z,7.65
2022-07-25T13:04:22.877Z,8.23
2022-07-25T13:06:49.312Z,8.05
2022-07-25T13:09:15.784Z,9.35
2022-07-25T13:11:42.343Z,9.77
2022-07-25T13:14:08.867Z,8.68
2022-07-25T13:16:37.742Z,7.57
2022-07-25T13:19:05.672Z,8.88
2022-07-25T13:21:32.197Z,8.52
2022-07-25T13:23:58.702Z,7.30
2022-07-25T13:26:25.176Z,7.85
2022-07-25T13:28:54.292Z,8.45
2022-07-25T13:31:24.517Z,7.43
2022-07-25T13:33:51.356Z,10.05
2022-07-25T13:36:18.348Z,7.68
2022-07-25T13:38:46.546Z,9.98
2022-07-25T13:41:13.867Z,13.38
2022-07-25T13:43:42.923Z,10.55
2022-07-25T13:46:09.714Z,8.85
2022-07-25T13:48:36.962Z,8.00
2022-07-25T13:51:03.711Z,8.55
2022-07-25T13:53:30.739Z,7.28
2022-07-25T13:55:58.680Z,6.82
2022-07-25T13:58:25.532Z,6.68
2022-07-25T14:00:52.162Z,7.03
2022-07-25T14:03:19.716Z,7.97
2022-07-25T14:05:46.315Z,6.60
2022-07-25T14:08:12.961Z,6.95
2022-07-25T14:10:39.362Z,10.63
2022-07-25T14:13:05.853Z,9.57
2022-07-25T14:15:32.315Z,6.65
2022-07-25T14:17:58.743Z,8.02
2022-07-25T14:20:25.364Z,7.97
2022-07-25T14:22:51.876Z,7.30
2022-07-25T14:25:18.314Z,8.02
2022-07-25T14:27:45.148Z,7.00
2022-07-25T14:30:12.527Z,6.57
2022-07-25T14:32:39.032Z,8.18
2022-07-25T14:35:06.114Z,8.90
2022-07-25T14:37:34.235Z,8.23
2022-07-25T14:40:02.571Z,9.80
2022-07-25T14:42:29.374Z,9.95
2022-07-25T14:44:55.857Z,10.15
2022-07-25T14:47:22.715Z,7.90
2022-07-25T14:49:53.150Z,8.55
2022-07-25T14:52:19.638Z,9.55
2022-07-25T14:54:46.031Z,10.32
2022-07-25T14:57:12.551Z,9.38
2022-07-25T14:59:39.039Z,11.70
2022-07-25T15:02:05.463Z,10.57
2022-07-25T15:04:32.139Z,8.43
2022-07-25T15:06:58.667Z,8.90
2022-07-25T15:09:25.034Z,10.07
2022-07-25T15:11:51.487Z,12.25
2022-07-25T15:14:18.098Z,8.88
2022-07-25T15:16:44.769Z,9.10
2022-07-25T15:19:17.631Z,9.70
2022-07-25T15:21:45.046Z,11.65
2022-07-25T15:24:11.744Z,15.90
2022-07-25T15:26:38.367Z,13.45
2022-07-25T15:29:10.454Z,9.35
2022-07-25T15:31:37.568Z,10.98
2022-07-25T15:34:04.220Z,16.27
2022-07-25T15:36:30.694Z,9.52
2022-07-25T15:38:57.137Z,15.40
2022-07-25T15:41:23.643Z,9.77
2022-07-25T15:43:50.044Z,10.90
2022-07-25T15:46:16.920Z,8.70
2022-07-25T15:48:44.272Z,10.65
2022-07-25T15:51:10.998Z,12.63
2022-07-25T15:53:37.428Z,8.82
2022-07-25T15:56:04.449Z,10.57
2022-07-25T15:58:31.186Z,10.27
2022-07-25T16:00:57.649Z,13.10
2022-07-25T16:03:24.195Z,9.70
2022-07-25T16:05:50.724Z,12.27
2022-07-25T16:08:17.384Z,14.23
2022-07-25T16:10:43.866Z,16.48
2022-07-25T16:13:10.292Z,9.75
2022-07-25T16:15:36.883Z,13.88
2022-07-25T16:18:03.495Z,12.63
2022-07-25T16:20:33.777Z,9.52
2022-07-25T16:23:00.967Z,9.18
2022-07-25T16:25:28.384Z,7.93
2022-07-25T16:27:55.751Z,9.60
2022-07-25T16:30:22.860Z,10.80
2022-07-25T16:32:49.525Z,9.57
2022-07-25T16:35:16.096Z,8.32
2022-07-25T16:37:43.230Z,7.57
2022-07-25T16:40:10.369Z,9.30
2022-07-25T16:42:37.011Z,7.05
2022-07-25T16:45:05.032Z,7.88
2022-07-25T16:47:31.788Z,8.82
2022-07-25T16:49:58.237Z,8.30
2022-07-25T16:52:24.961Z,9.65
2022-07-25T16:54:51.860Z,6.72
2022-07-25T16:57:18.352Z,5.10
2022-07-25T16:59:53.112Z,7.88
2022-07-25T17:02:19.579Z,5.88
2022-07-25T17:04:46.589Z,12.93
2022-07-25T17:07:13.211Z,7.13
2022-07-25T17:09:40.587Z,5.00
2022-07-25T17:12:07.233Z,5.63
2022-07-25T17:14:34.390Z,5.35
2022-07-25T17:17:00.813Z,6.45
2022-07-25T17:19:27.200Z,5.88
2022-07-25T17:21:53.587Z,9.07
2022-07-25T17:24:19.979Z,7.80
2022-07-25T17:26:46.405Z,7.15
2022-07-25T17:29:13.629Z,5.57
2022-07-25T17:31:40.361Z,8.38
2022-07-25T17:34:06.984Z,10.75
2022-07-25T17:36:33.908Z,7.18
2022-07-25T17:39:00.748Z,7.63
2022-07-25T17:41:27.271Z,5.90
2022-07-25T17:43:53.688Z,11.95
2022-07-25T17:46:20.148Z,9.98
2022-07-25T17:48:46.837Z,12.50
2022-07-25T17:51:13.314Z,7.30
2022-07-25T17:53:39.820Z,9.38
2022-07-25T17:56:08.317Z,11.25
2022-07-25T17:58:34.864Z,9.57
2022-07-25T18:01:02.580Z,10.55
2022-07-25T18:03:30.373Z,9.73
2022-07-25T18:05:56.894Z,7.85
2022-07-25T18:08:23.415Z,9.73
2022-07-25T18:10:50.291Z,7.55
2022-07-25T18:13:18.002Z,8.82
2022-07-25T18:15:45.323Z,14.63
2022-07-25T18:18:15.660Z,9.43
2022-07-25T18:20:46.901Z,15.75
2022-07-25T18:23:13.419Z,9.77
2022-07-25T18:25:40.656Z,6.95
2022-07-25T18:28:07.537Z,12.75
2022-07-25T18:30:33.982Z,7.85
2022-07-25T18:33:00.429Z,8.65
2022-07-25T18:35:26.814Z,9.07
2022-07-25T18:37:53.251Z,8.43
2022-07-25T18:40:20.748Z,9.10
2022-07-25T18:42:47.565Z,8.48
2022-07-25T18:45:14.173Z,4.72
2022-07-25T18:47:40.858Z,11.07
2022-07-25T18:50:08.071Z,11.57
2022-07-25T18:52:37.590Z,11.25
2022-07-25T18:55:06.243Z,14.73
2022-07-25T18:57:33.650Z,10.85
2022-07-25T19:00:03.142Z,11.80
2022-07-25T19:02:29.950Z,11.37
2022-07-25T19:04:56.515Z,19.58
2022-07-25T19:07:23.348Z,10.45
2022-07-25T19:09:49.780Z,10.50
2022-07-25T19:12:16.250Z,11.45
2022-07-25T19:14:42.800Z,11.02
2022-07-25T19:17:09.377Z,12.90
2022-07-25T19:19:35.823Z,10.18
2022-07-25T19:22:02.498Z,9.05
2022-07-25T19:24:29.867Z,6.03
2022-07-25T19:26:57.199Z,9.18
2022-07-25T19:29:23.926Z,16.88
2022-07-25T19:31:50.409Z,8.25
2022-07-25T19:34:16.933Z,11.55
2022-07-25T19:36:45.804Z,13.00
2022-07-25T19:39:13.072Z,7.65
2022-07-25T19:41:43.443Z,7.55
2022-07-25T19:44:13.169Z,6.40
2022-07-25T19:46:39.808Z,7.57
2022-07-25T19:49:06.460Z,5.32
2022-07-25T19:51:33.273Z,5.32
2022-07-25T19:54:03.368Z,10.27
2022-07-25T19:56:31.225Z,8.85
2022-07-25T19:58:58.024Z,9.38
2022-07-25T20:01:24.628Z,7.45
2022-07-25T20:03:51.092Z,10.90
2022-07-25T20:06:20.454Z,10.15
2022-07-25T20:08:47.737Z,6.88
2022-07-25T20:11:14.518Z,4.47
2022-07-25T20:13:41.026Z,8.02
2022-07-25T20:16:07.836Z,11.63
2022-07-25T20:18:34.258Z,7.68
2022-07-25T20:21:00.965Z,4.40
2022-07-25T20:23:27.483Z,9.15
2022-07-25T20:25:54.023Z,7.68
2022-07-25T20:28:20.774Z,5.03
2022-07-25T20:30:47.432Z,11.98
2022-07-25T20:33:14.008Z,7.30
2022-07-25T20:35:40.500Z,6.53
2022-07-25T20:38:09.751Z,5.45
2022-07-25T20:40:39.195Z,8.38
2022-07-25T20:43:08.308Z,13.07
2022-07-25T20:45:34.795Z,19.80
2022-07-25T20:48:01.258Z,12.38
2022-07-25T20:50:27.715Z,7.80
2022-07-25T20:52:54.168Z,10.30
2022-07-25T20:55:23.371Z,11.35
2022-07-25T20:57:50.868Z,8.00
2022-07-25T21:00:18.054Z,10.75
2022-07-25T21:02:44.556Z,8.07
2022-07-25T21:05:11.077Z,4.68
2022-07-25T21:07:37.638Z,9.88
2022-07-25T21:10:04.639Z,9.27
2022-07-25T21:12:32.952Z,7.07
2022-07-25T21:15:01.246Z,9.20
2022-07-25T21:17:28.053Z,6.10
2022-07-25T21:19:54.701Z,8.70
2022-07-25T21:22:21.230Z,9.27
2022-07-25T21:24:49.458Z,6.68
2022-07-25T21:27:17.173Z,7.72
2022-07-25T21:29:43.751Z,5.53
2022-07-25T21:32:13.511Z,5.88
2022-07-25T21:34:41.247Z,4.43
2022-07-25T21:37:07.866Z,7.30
2022-07-25T21:39:34.271Z,7.70
2022-07-25T21:42:01.234Z,8.77
2022-07-25T21:44:27.692Z,5.22
2022-07-25T21:46:54.121Z,10.02
2022-07-25T21:49:41.201Z,9.73
2022-07-25T21:52:08.589Z,6.00
2022-07-25T21:54:40.662Z,6.70
2022-07-25T21:57:07.134Z,6.63
2022-07-25T21:59:43.853Z,8.23
2022-07-25T22:02:10.347Z,6.30
2022-07-25T22:04:37.118Z,5.68
2022-07-25T22:07:03.769Z,9.32
2022-07-25T22:09:30.210Z,7.65
2022-07-25T22:11:57.844Z,5.68
2022-07-25T22:14:24.389Z,7.22
2022-07-25T22:16:50.887Z,7.00
2022-07-25T22:19:20.859Z,8.95
2022-07-25T22:21:48.958Z,10.98
2022-07-25T22:24:15.371Z,8.18
2022-07-25T22:26:41.886Z,8.57
2022-07-25T22:29:08.832Z,8.05
2022-07-25T22:31:35.804Z,5.68
2022-07-25T22:34:02.290Z,6.22
2022-07-25T22:36:28.781Z,7.47
2022-07-25T22:38:55.559Z,8.73
2022-07-25T22:41:21.986Z,8.15
2022-07-25T22:43:52.451Z,6.72
2022-07-25T22:46:23.639Z,8.70
2022-07-25T22:48:50.198Z,16.17
2022-07-25T22:51:16.718Z,4.68
2022-07-25T22:53:43.144Z,5.20
2022-07-25T22:56:09.689Z,8.40
2022-07-25T22:58:36.082Z,6.80
2022-07-25T23:01:02.547Z,10.88
2022-07-25T23:03:32.880Z,6.38
2022-07-25T23:05:59.722Z,4.15
2022-07-25T23:08:26.111Z,6.65
2022-07-25T23:10:52.683Z,5.63
2022-07-25T23:13:19.407Z,4.80
2022-07-25T23:15:50.347Z,8.77
2022-07-25T23:18:18.059Z,11.13
2022-07-25T23:20:44.439Z,11.75
2022-07-25T23:23:10.877Z,10.02
2022-07-25T23:25:37.320Z,9.95
2022-07-25T23:28:04.007Z,9.45
2022-07-25T23:30:30.424Z,17.23
2022-07-25T23:32:56.807Z,5.97
2022-07-25T23:35:23.363Z,9.57
2022-07-25T23:37:49.753Z,6.85
2022-07-25T23:40:16.196Z,6.97
2022-07-25T23:42:42.651Z,6.47
2022-07-25T23:45:10.443Z,13.13
2022-07-25T23:47:39.653Z,13.95
2022-07-25T23:50:08.520Z,8.25
2022-07-25T23:52:35.022Z,6.43
2022-07-25T23:55:01.560Z,7.07
2022-07-25T23:57:27.997Z,6.68
2022-07-25T23:59:54.358Z,7.72
